Time;durP1;ratioP1;P1;durP2;ratioP2;P2;SDS_P1;SDS_P2;PMS_P1;PMS_P2;Temp;Humidity;BMP_temperature;BMP_pressure;BME280_temperature;BME280_humidity;BME280_pressure;Samples;Min_cycle;Max_cycle;Signal;HPM_P1;HPM_P2
2021/11/04 00:00:20;;;;;;;10.95;9.85;;;9.30;99.90;;;;;;5052462;28;20025;-66
2021/11/04 00:02:46;;;;;;;11.52;8.32;;;9.20;99.90;;;;;;5050439;28;20025;-66
2021/11/04 00:05:13;;;;;;;10.90;8.77;;;9.20;99.90;;;;;;5052804;28;20408;-66
2021/11/04 00:07:39;;;;;;;11.27;9.07;;;9.20;99.90;;;;;;5051339;28;20044;-66
2021/11/04 00:10:06;;;;;;;14.65;9.73;;;9.20;99.90;;;;;;5052247;28;20116;-66
2021/11/04 00:12:32;;;;;;;10.98;8.15;;;9.20;99.90;;;;;;5051393;28;20033;-66
2021/11/04 00:14:58;;;;;;;11.18;9.00;;;9.40;99.90;;;;;;5050981;28;20095;-67
2021/11/04 00:17:24;;;;;;;10.07;8.77;;;9.20;99.90;;;;;;5051791;28;20535;-70
2021/11/04 00:19:49;;;;;;;10.20;8.48;;;9.30;99.90;;;;;;5050854;28;20032;-67
2021/11/04 00:22:15;;;;;;;10.13;8.95;;;9.30;99.90;;;;;;5050831;28;20024;-67
2021/11/04 00:24:41;;;;;;;12.07;9.07;;;9.30;99.90;;;;;;5051235;28;20052;-68
2021/11/04 00:27:06;;;;;;;13.93;8.50;;;9.30;99.90;;;;;;5050611;28;20048;-66
2021/11/04 00:29:33;;;;;;;16.98;9.60;;;9.20;99.90;;;;;;5049973;28;20080;-67
2021/11/04 00:32:00;;;;;;;12.40;9.45;;;9.20;99.90;;;;;;5051901;28;20029;-66
2021/11/04 00:34:26;;;;;;;14.32;9.43;;;9.10;99.90;;;;;;5051252;28;20362;-67
2021/11/04 00:36:52;;;;;;;14.30;9.10;;;9.20;99.90;;;;;;5050725;28;20457;-66
2021/11/04 00:39:17;;;;;;;15.10;9.25;;;9.20;99.90;;;;;;5051478;28;20052;-66
2021/11/04 00:41:43;;;;;;;14.90;9.25;;;9.10;99.90;;;;;;5050509;28;20451;-66
2021/11/04 00:44:09;;;;;;;12.20;9.02;;;9.20;99.90;;;;;;5051541;28;20032;-66
2021/11/04 00:46:35;;;;;;;15.48;9.77;;;9.20;99.90;;;;;;5051037;28;20036;-66
2021/11/04 00:49:01;;;;;;;11.77;9.68;;;9.20;99.90;;;;;;5050179;28;20031;-66
2021/11/04 00:51:28;;;;;;;9.82;8.82;;;9.30;99.90;;;;;;5049547;28;20104;-67
2021/11/04 00:53:54;;;;;;;13.57;9.95;;;9.30;99.90;;;;;;5050000;28;20561;-66
2021/11/04 00:56:20;;;;;;;14.00;9.52;;;9.30;99.90;;;;;;5051494;28;20351;-66
2021/11/04 00:58:49;;;;;;;11.73;9.00;;;9.30;99.90;;;;;;5050567;28;20044;-68
2021/11/04 01:01:20;;;;;;;13.43;9.63;;;9.30;99.90;;;;;;5051238;28;20052;-65
2021/11/04 01:03:46;;;;;;;12.48;9.63;;;9.30;99.90;;;;;;5050748;28;20032;-66
2021/11/04 01:06:13;;;;;;;13.35;8.90;;;9.20;99.90;;;;;;5050795;28;20068;-66
2021/11/04 01:08:39;;;;;;;12.07;10.30;;;9.30;99.90;;;;;;5049257;28;20102;-66
2021/11/04 01:11:05;;;;;;;14.88;10.82;;;9.30;99.90;;;;;;5051580;28;20431;-66
2021/11/04 01:13:31;;;;;;;13.48;10.80;;;9.40;99.90;;;;;;5050355;28;20032;-67
2021/11/04 01:15:56;;;;;;;15.35;11.38;;;9.40;99.90;;;;;;5050843;28;20025;-66
2021/11/04 01:18:22;;;;;;;12.43;9.77;;;9.40;99.90;;;;;;5050839;28;20304;-66
2021/11/04 01:20:48;;;;;;;11.23;9.52;;;9.40;99.90;;;;;;5050210;28;20580;-66
2021/11/04 01:23:13;;;;;;;13.88;10.10;;;9.30;99.90;;;;;;5051179;28;20032;-66
2021/11/04 01:25:39;;;;;;;13.15;9.60;;;9.30;99.90;;;;;;5050576;28;20022;-66
2021/11/04 01:28:08;;;;;;;11.90;10.07;;;9.30;99.90;;;;;;5049326;28;20088;-65
2021/11/04 01:30:35;;;;;;;10.95;9.70;;;9.30;99.90;;;;;;5050381;28;20029;-67
2021/11/04 01:33:01;;;;;;;13.63;10.85;;;9.30;99.90;;;;;;5049530;28;20048;-65
2021/11/04 01:35:30;;;;;;;16.90;10.38;;;9.40;99.90;;;;;;5050984;28;20463;-66
2021/11/04 01:37:58;;;;;;;14.27;11.27;;;9.30;99.90;;;;;;5051093;28;20382;-66
2021/11/04 01:40:24;;;;;;;13.60;10.95;;;9.30;99.90;;;;;;5050868;28;20025;-66
2021/11/04 01:42:50;;;;;;;16.58;11.00;;;9.30;99.90;;;;;;5050333;28;20463;-65
2021/11/04 01:45:16;;;;;;;11.50;9.80;;;9.30;99.90;;;;;;5050856;28;20033;-66
2021/11/04 01:47:45;;;;;;;14.90;11.18;;;9.40;99.90;;;;;;5050200;28;20033;-66
2021/11/04 01:50:12;;;;;;;12.45;10.32;;;9.30;99.90;;;;;;5051029;28;20035;-66
2021/11/04 01:52:39;;;;;;;13.32;10.27;;;9.30;99.90;;;;;;5050816;28;20459;-66
2021/11/04 01:55:04;;;;;;;13.50;10.07;;;9.20;99.90;;;;;;5054919;28;20108;-67
2021/11/04 01:57:30;;;;;;;13.27;9.98;;;9.30;99.90;;;;;;5053865;28;20121;-67
2021/11/04 01:59:56;;;;;;;13.77;10.35;;;9.30;99.90;;;;;;5054521;28;20056;-66
2021/11/04 02:02:26;;;;;;;12.80;11.20;;;9.30;99.90;;;;;;5054382;28;20440;-67
2021/11/04 02:05:05;;;;;;;15.48;11.05;;;9.30;99.90;;;;;;5052390;28;20036;-65
2021/11/04 02:07:51;;;;;;;13.05;10.55;;;9.20;99.90;;;;;;5053441;28;20447;-67
2021/11/04 02:10:29;;;;;;;15.80;11.40;;;9.10;99.90;;;;;;5054437;28;20231;-66
2021/11/04 02:13:08;;;;;;;18.50;11.13;;;9.10;99.90;;;;;;5052866;28;20160;-65
2021/11/04 02:15:37;;;;;;;13.88;10.38;;;9.10;99.90;;;;;;5052433;28;20029;-66
2021/11/04 02:18:07;;;;;;;13.38;10.48;;;9.20;99.90;;;;;;5054226;28;20029;-66
2021/11/04 02:20:57;;;;;;;20.13;13.13;;;9.20;99.90;;;;;;5053714;28;20052;-66
2021/11/04 02:23:56;;;;;;;15.27;12.07;;;9.20;99.90;;;;;;5054144;28;20025;-65
2021/11/04 02:26:22;;;;;;;15.95;12.35;;;9.30;99.90;;;;;;5054699;28;20381;-65
2021/11/04 02:28:50;;;;;;;15.20;12.80;;;9.20;99.90;;;;;;5053655;28;20482;-66
2021/11/04 02:31:16;;;;;;;22.33;13.15;;;9.30;99.90;;;;;;5052740;28;20028;-66
2021/11/04 02:33:43;;;;;;;18.45;15.02;;;9.20;99.90;;;;;;5053377;28;20086;-66
2021/11/04 02:36:09;;;;;;;17.75;14.00;;;9.30;99.90;;;;;;5053786;28;20067;-67
2021/11/04 02:38:35;;;;;;;19.50;13.15;;;9.30;99.90;;;;;;5052377;28;20123;-66
2021/11/04 02:41:03;;;;;;;20.25;14.02;;;9.20;99.90;;;;;;5053888;28;20025;-67
2021/11/04 02:43:30;;;;;;;16.73;14.35;;;9.20;99.90;;;;;;5052738;28;20052;-66
2021/11/04 02:45:58;;;;;;;19.50;15.57;;;9.20;99.90;;;;;;5053715;28;20052;-66
2021/11/04 02:48:25;;;;;;;17.55;14.77;;;9.30;99.90;;;;;;5053795;28;20032;-66
2021/11/04 02:50:52;;;;;;;16.48;13.75;;;9.30;99.90;;;;;;5053067;28;20037;-66
2021/11/04 02:53:19;;;;;;;23.48;16.60;;;9.30;99.90;;;;;;5054011;28;20025;-66
2021/11/04 02:55:45;;;;;;;20.38;15.38;;;9.30;99.90;;;;;;5053323;28;20033;-66
2021/11/04 02:58:12;;;;;;;18.50;13.45;;;9.30;99.90;;;;;;5053607;28;20044;-66
2021/11/04 03:00:41;;;;;;;17.67;14.77;;;9.40;99.90;;;;;;5051914;28;20031;-67
2021/11/04 03:03:07;;;;;;;15.98;12.85;;;9.40;99.90;;;;;;5052044;28;20025;-66
2021/11/04 03:05:33;;;;;;;16.60;13.13;;;9.40;99.90;;;;;;5052294;28;20433;-81
2021/11/04 03:07:58;;;;;;;16.50;13.73;;;9.40;99.90;;;;;;5053354;28;20033;-67
2021/11/04 03:10:24;;;;;;;17.50;12.82;;;9.40;99.90;;;;;;5053629;28;20029;-66
2021/11/04 03:12:51;;;;;;;16.20;14.07;;;9.40;99.90;;;;;;5052774;28;20033;-66
2021/11/04 03:15:19;;;;;;;21.45;13.38;;;9.40;99.90;;;;;;5053519;28;20025;-66
2021/11/04 03:17:47;;;;;;;15.20;13.10;;;9.30;99.90;;;;;;5052566;28;20423;-66
2021/11/04 03:20:15;;;;;;;19.17;14.95;;;9.30;99.90;;;;;;5053486;28;20163;-66
2021/11/04 03:22:42;;;;;;;19.05;14.82;;;9.40;99.90;;;;;;5050971;28;20243;-67
2021/11/04 03:25:09;;;;;;;21.00;14.25;;;9.40;99.90;;;;;;5053352;28;20079;-66
2021/11/04 03:27:39;;;;;;;22.05;15.35;;;9.40;99.90;;;;;;5052393;28;20041;-69
2021/11/04 03:30:05;;;;;;;21.05;15.20;;;9.40;99.90;;;;;;5052010;28;20115;-66
2021/11/04 03:32:32;;;;;;;19.52;14.18;;;9.40;99.90;;;;;;5051799;28;20043;-65
2021/11/04 03:34:58;;;;;;;24.92;15.52;;;9.30;99.90;;;;;;5052559;28;20494;-66
2021/11/04 03:37:27;;;;;;;19.92;15.02;;;9.30;99.90;;;;;;5051705;28;20041;-66
2021/11/04 03:39:54;;;;;;;22.15;15.50;;;9.20;99.90;;;;;;5052249;28;20412;-66
2021/11/04 03:42:21;;;;;;;28.70;17.02;;;9.10;99.90;;;;;;5052557;28;20485;-65
2021/11/04 03:44:48;;;;;;;22.85;16.75;;;9.00;99.90;;;;;;5052059;28;20059;-66
2021/11/04 03:47:16;;;;;;;23.20;16.13;;;9.00;99.90;;;;;;5051545;28;20083;-67
2021/11/04 03:49:44;;;;;;;21.52;16.73;;;9.00;99.90;;;;;;5052205;28;20463;-66
2021/11/04 03:52:10;;;;;;;22.05;16.02;;;9.10;99.90;;;;;;5053053;28;20060;-66
2021/11/04 03:54:36;;;;;;;20.70;16.33;;;9.00;99.90;;;;;;5050810;28;20063;-81
2021/11/04 03:57:03;;;;;;;27.63;17.58;;;8.90;99.90;;;;;;5052741;28;20091;-66
2021/11/04 03:59:28;;;;;;;23.27;16.25;;;8.90;99.90;;;;;;5052337;28;20336;-66
2021/11/04 04:01:55;;;;;;;24.05;16.50;;;8.90;99.90;;;;;;5050699;28;20035;-65
2021/11/04 04:04:20;;;;;;;27.35;17.13;;;9.00;99.90;;;;;;5051379;28;20029;-67
2021/11/04 04:06:54;;;;;;;25.02;17.17;;;9.00;99.90;;;;;;5050807;28;20024;-66
2021/11/04 04:09:24;;;;;;;23.15;16.95;;;9.00;99.90;;;;;;5052458;28;20036;-66
2021/11/04 04:11:51;;;;;;;23.85;16.85;;;9.00;99.90;;;;;;5051723;28;20454;-66
2021/11/04 04:14:17;;;;;;;27.58;18.25;;;8.90;99.90;;;;;;5052060;28;20104;-66
2021/11/04 04:16:42;;;;;;;26.30;17.13;;;8.90;99.90;;;;;;5050606;28;20098;-68
2021/11/04 04:19:09;;;;;;;21.98;16.25;;;8.90;99.90;;;;;;5051917;28;20025;-66
2021/11/04 04:21:35;;;;;;;23.08;16.83;;;9.00;99.90;;;;;;5052140;28;20029;-66
2021/11/04 04:24:01;;;;;;;24.67;16.25;;;9.10;99.90;;;;;;5051527;28;20082;-66
2021/11/04 04:26:27;;;;;;;21.05;16.52;;;9.10;99.90;;;;;;5052345;28;20083;-66
2021/11/04 04:28:52;;;;;;;23.35;16.35;;;9.20;99.90;;;;;;5049984;28;20045;-67
2021/11/04 04:31:18;;;;;;;20.65;15.50;;;9.20;99.90;;;;;;5052391;28;20100;-66
2021/11/04 04:33:43;;;;;;;21.20;15.15;;;9.20;99.90;;;;;;5050081;28;20032;-67
2021/11/04 04:36:09;;;;;;;18.13;14.88;;;9.10;99.90;;;;;;5051623;28;20029;-66
2021/11/04 04:38:35;;;;;;;20.00;15.10;;;9.10;99.90;;;;;;5051771;28;20025;-65
2021/11/04 04:41:00;;;;;;;19.58;15.18;;;9.10;99.90;;;;;;5051231;28;20025;-66
2021/11/04 04:43:26;;;;;;;22.67;15.55;;;9.20;99.90;;;;;;5050361;28;20025;-66
2021/11/04 04:45:52;;;;;;;18.33;14.30;;;9.10;99.90;;;;;;5048877;28;20378;-66
2021/11/04 04:48:18;;;;;;;19.38;14.43;;;9.10;99.90;;;;;;5042856;28;20064;-65
2021/11/04 04:50:44;;;;;;;20.33;13.60;;;9.20;99.90;;;;;;5031714;28;20166;-67
2021/11/04 04:53:10;;;;;;;20.63;15.30;;;9.20;99.90;;;;;;5030328;28;20037;-65
2021/11/04 04:55:36;;;;;;;18.55;14.70;;;9.20;99.90;;;;;;5032231;28;20025;-65
2021/11/04 04:58:02;;;;;;;21.42;14.63;;;9.20;99.90;;;;;;5032372;28;20065;-66
2021/11/04 05:00:28;;;;;;;17.88;14.27;;;9.20;99.90;;;;;;5031332;28;20109;-67
2021/11/04 05:02:54;;;;;;;21.38;15.07;;;9.30;99.90;;;;;;5029757;28;20030;-66
2021/11/04 05:05:20;;;;;;;19.65;14.15;;;9.30;99.90;;;;;;5031555;28;20442;-66
2021/11/04 05:07:45;;;;;;;18.67;14.02;;;9.30;99.90;;;;;;5029548;28;20124;-66
2021/11/04 05:10:12;;;;;;;18.83;14.10;;;9.30;99.90;;;;;;5030177;28;20485;-66
2021/11/04 05:12:37;;;;;;;18.38;13.65;;;9.30;99.90;;;;;;5031690;28;20033;-67
2021/11/04 05:15:05;;;;;;;18.83;13.63;;;9.30;99.90;;;;;;5030887;28;20104;-67
2021/11/04 05:17:30;;;;;;;17.27;13.43;;;9.20;99.90;;;;;;5031421;28;20025;-66
2021/11/04 05:19:56;;;;;;;17.42;13.57;;;9.30;99.90;;;;;;5030800;28;20021;-66
2021/11/04 05:22:22;;;;;;;24.58;13.60;;;9.30;99.90;;;;;;5030276;28;20383;-66
2021/11/04 05:24:47;;;;;;;22.45;15.30;;;9.20;99.90;;;;;;5029749;28;20026;-67
2021/11/04 05:27:14;;;;;;;20.80;14.77;;;9.30;99.90;;;;;;5031468;28;20037;-67
2021/11/04 05:29:40;;;;;;;19.70;14.88;;;9.30;99.90;;;;;;5031686;28;20057;-66
2021/11/04 05:32:08;;;;;;;23.33;16.30;;;9.30;99.90;;;;;;5031114;28;20026;-66
2021/11/04 05:34:35;;;;;;;18.25;14.55;;;9.30;99.90;;;;;;5031705;28;20057;-67
2021/11/04 05:37:01;;;;;;;19.63;13.75;;;9.40;99.90;;;;;;5029903;28;20033;-67
2021/11/04 05:39:26;;;;;;;24.75;13.02;;;9.40;99.90;;;;;;5030381;28;20041;-66
2021/11/04 05:41:52;;;;;;;20.20;13.52;;;9.40;99.90;;;;;;5029598;28;20460;-67
2021/11/04 05:44:18;;;;;;;20.45;11.85;;;9.40;99.90;;;;;;5030120;28;20030;-67
2021/11/04 05:46:43;;;;;;;18.08;11.15;;;9.30;99.90;;;;;;5030536;28;20041;-70
2021/11/04 05:49:09;;;;;;;13.73;10.30;;;9.30;99.90;;;;;;5029649;28;20048;-67
2021/11/04 05:51:34;;;;;;;13.38;9.88;;;9.30;99.90;;;;;;5031213;28;20029;-65
2021/11/04 05:54:00;;;;;;;12.80;8.77;;;9.30;99.90;;;;;;5030214;28;20079;-66
2021/11/04 05:56:26;;;;;;;14.65;10.02;;;9.20;99.90;;;;;;5031568;28;20498;-68
2021/11/04 05:58:51;;;;;;;14.63;9.30;;;9.20;99.90;;;;;;5028824;28;20112;-67
2021/11/04 06:01:17;;;;;;;10.20;8.15;;;9.10;99.90;;;;;;5030422;28;20033;-67
2021/11/04 06:03:42;;;;;;;11.82;8.70;;;9.10;99.90;;;;;;5028919;28;20463;-67
2021/11/04 06:06:08;;;;;;;12.85;8.48;;;9.10;99.90;;;;;;5030301;28;20041;-67
2021/11/04 06:08:33;;;;;;;13.52;8.20;;;9.10;99.90;;;;;;5029345;28;20033;-67
2021/11/04 06:10:59;;;;;;;12.88;8.48;;;9.20;99.90;;;;;;5028722;28;20032;-67
2021/11/04 06:13:25;;;;;;;11.68;7.88;;;9.10;99.90;;;;;;5062685;28;20103;-67
2021/11/04 06:15:50;;;;;;;10.30;7.35;;;9.10;99.90;;;;;;5030113;28;20025;-68
2021/11/04 06:18:16;;;;;;;10.52;7.80;;;9.10;99.90;;;;;;5029518;28;20053;-66
2021/11/04 06:20:42;;;;;;;11.57;8.35;;;9.10;99.90;;;;;;5030821;28;20030;-66
2021/11/04 06:23:08;;;;;;;10.85;7.07;;;9.20;99.90;;;;;;5030543;28;20474;-66
2021/11/04 06:25:33;;;;;;;10.13;6.70;;;9.10;99.90;;;;;;5030660;28;20029;-67
2021/11/04 06:27:59;;;;;;;8.85;6.82;;;9.30;99.90;;;;;;5028411;28;20122;-66
2021/11/04 06:30:25;;;;;;;16.65;8.27;;;9.20;99.90;;;;;;5030861;28;20509;-67
2021/11/04 06:32:51;;;;;;;9.45;6.88;;;9.20;99.90;;;;;;5030122;28;20440;-67
2021/11/04 06:35:17;;;;;;;8.18;5.80;;;9.20;99.90;;;;;;5030602;28;20443;-66
2021/11/04 06:37:43;;;;;;;8.63;6.07;;;9.20;99.90;;;;;;5029346;28;20040;-66
2021/11/04 06:40:09;;;;;;;10.75;7.53;;;9.30;99.90;;;;;;5032494;28;20025;-66
2021/11/04 06:42:36;;;;;;;9.95;7.22;;;9.20;99.90;;;;;;5033936;28;20029;-67
2021/11/04 06:45:02;;;;;;;10.20;7.20;;;9.30;99.90;;;;;;5033381;28;20022;-68
2021/11/04 06:47:31;;;;;;;9.70;6.68;;;9.40;99.90;;;;;;5032228;28;20489;-67
2021/11/04 06:49:58;;;;;;;9.60;6.70;;;9.40;99.90;;;;;;5031878;28;20025;-67
2021/11/04 06:52:29;;;;;;;8.73;6.38;;;9.40;99.90;;;;;;5033703;28;20082;-67
2021/11/04 06:54:57;;;;;;;9.23;6.45;;;9.30;99.90;;;;;;5032721;28;20033;-68
2021/11/04 06:57:26;;;;;;;8.10;5.47;;;9.30;99.90;;;;;;5032191;28;20034;-67
2021/11/04 06:59:56;;;;;;;10.00;5.85;;;9.30;99.90;;;;;;5031746;28;20021;-68
2021/11/04 07:02:34;;;;;;;10.77;5.82;;;9.40;99.90;;;;;;5033567;28;20032;-67
2021/11/04 07:05:00;;;;;;;10.77;6.40;;;9.40;99.90;;;;;;5032808;28;20017;-66
2021/11/04 07:07:26;;;;;;;7.65;5.53;;;9.40;99.90;;;;;;5032850;28;20029;-67
2021/11/04 07:09:52;;;;;;;7.65;5.53;;;9.30;99.90;;;;;;5031036;28;20044;-67
2021/11/04 07:12:18;;;;;;;8.80;5.65;;;9.30;99.90;;;;;;5033030;28;20125;-66
2021/11/04 07:14:44;;;;;;;6.38;4.97;;;9.30;99.90;;;;;;5037000;28;20036;-67
2021/11/04 07:17:14;;;;;;;6.30;4.78;;;9.40;99.90;;;;;;5044417;28;20124;-68
2021/11/04 07:19:41;;;;;;;8.50;4.82;;;9.40;99.90;;;;;;5035702;28;20072;-67
2021/11/04 07:22:32;;;;;;;9.30;4.50;;;9.50;99.90;;;;;;5032395;28;20029;-67
2021/11/04 07:25:08;;;;;;;8.95;4.63;;;9.40;99.90;;;;;;5032437;28;20057;-67
2021/11/04 07:27:33;;;;;;;8.00;4.85;;;9.60;99.90;;;;;;5031081;28;20030;-67
2021/11/04 07:30:19;;;;;;;22.70;6.05;;;9.50;99.90;;;;;;5031705;28;20044;-67
2021/11/04 07:32:50;;;;;;;12.25;6.75;;;9.60;99.90;;;;;;5031466;28;20029;-63
2021/11/04 07:35:18;;;;;;;9.88;5.95;;;9.90;99.90;;;;;;5032665;28;20022;-62
2021/11/04 07:37:45;;;;;;;8.77;4.18;;;10.40;99.90;;;;;;5047602;28;20129;-64
2021/11/04 07:40:13;;;;;;;6.60;3.92;;;10.70;99.90;;;;;;5051717;28;20071;-68
2021/11/04 07:42:39;;;;;;;6.57;4.18;;;11.00;99.90;;;;;;5047280;28;20032;-66
2021/11/04 07:45:05;;;;;;;5.70;4.15;;;10.40;99.90;;;;;;5047599;28;20101;-67
2021/11/04 07:47:32;;;;;;;5.10;3.95;;;9.90;99.90;;;;;;5044660;28;20139;-67
2021/11/04 07:49:57;;;;;;;6.78;5.05;;;9.80;99.90;;;;;;5049965;28;20029;-68
2021/11/04 07:52:23;;;;;;;4.88;3.55;;;9.60;99.90;;;;;;5050389;28;20083;-67
2021/11/04 07:54:49;;;;;;;5.20;4.43;;;9.70;99.90;;;;;;5050413;28;20033;-73
2021/11/04 07:57:15;;;;;;;8.60;4.40;;;9.70;99.90;;;;;;5057110;28;20036;-66
2021/11/04 07:59:40;;;;;;;8.27;4.97;;;9.60;99.90;;;;;;5050977;28;20081;-65
2021/11/04 08:02:07;;;;;;;7.90;4.78;;;9.60;99.90;;;;;;5051069;28;20037;-66
2021/11/04 08:04:32;;;;;;;7.05;5.28;;;9.50;99.90;;;;;;5050423;28;20032;-72
2021/11/04 08:06:58;;;;;;;7.32;5.57;;;9.40;99.90;;;;;;5053610;28;20028;-71
2021/11/04 08:09:25;;;;;;;14.13;7.28;;;9.40;99.90;;;;;;5049218;28;20039;-72
2021/11/04 08:11:51;;;;;;;8.45;5.63;;;9.40;99.90;;;;;;5049009;28;20040;-79
2021/11/04 08:14:16;;;;;;;10.00;6.45;;;9.40;99.90;;;;;;5053681;28;20077;-66
2021/11/04 08:16:42;;;;;;;9.75;6.40;;;9.30;99.90;;;;;;5055895;28;20123;-66
2021/11/04 08:19:08;;;;;;;11.95;6.57;;;9.30;99.90;;;;;;5055488;28;20455;-68
2021/11/04 08:21:34;;;;;;;9.82;6.55;;;9.40;99.90;;;;;;5062929;28;20374;-67
2021/11/04 08:23:59;;;;;;;12.13;8.43;;;9.40;99.90;;;;;;5054677;28;20100;-66
2021/11/04 08:26:25;;;;;;;11.55;8.10;;;9.30;99.90;;;;;;5064075;28;20116;-70
2021/11/04 08:28:52;;;;;;;14.27;8.18;;;9.80;99.90;;;;;;5052974;28;20193;-71
2021/11/04 08:31:18;;;;;;;13.57;7.72;;;9.70;99.90;;;;;;5040796;28;20024;-69
2021/11/04 08:33:44;;;;;;;13.90;8.93;;;9.50;99.90;;;;;;5070468;28;20039;-70
2021/11/04 08:36:10;;;;;;;16.65;9.13;;;9.60;99.90;;;;;;5064922;28;20066;-70
2021/11/04 08:38:36;;;;;;;15.32;10.02;;;9.50;99.90;;;;;;5049832;28;20104;-69
2021/11/04 08:41:02;;;;;;;15.95;10.25;;;9.50;99.90;;;;;;5067307;28;20109;-69
2021/11/04 08:43:28;;;;;;;15.60;10.68;;;9.50;99.90;;;;;;5058762;28;20017;-70
2021/11/04 08:45:54;;;;;;;16.63;9.93;;;9.60;99.90;;;;;;5060315;28;20193;-68
2021/11/04 08:48:20;;;;;;;18.13;11.40;;;9.50;99.90;;;;;;5051180;28;20021;-69
2021/11/04 08:50:47;;;;;;;18.17;11.98;;;9.40;99.90;;;;;;5050553;28;20021;-67
2021/11/04 08:53:14;;;;;;;19.27;12.02;;;9.50;99.90;;;;;;5049642;28;20021;-67
2021/11/04 08:55:41;;;;;;;14.50;10.30;;;9.70;99.90;;;;;;5050885;28;20336;-66
2021/11/04 08:58:07;;;;;;;16.70;11.32;;;9.70;99.90;;;;;;5049199;28;20044;-66
2021/11/04 09:00:32;;;;;;;18.50;11.05;;;9.70;99.90;;;;;;5051021;28;20029;-67
2021/11/04 09:02:58;;;;;;;15.15;9.73;;;9.60;99.90;;;;;;5049940;28;20505;-67
2021/11/04 09:05:24;;;;;;;18.38;10.32;;;9.50;99.90;;;;;;5050910;28;20029;-67
2021/11/04 09:07:50;;;;;;;15.98;9.48;;;9.60;99.90;;;;;;5051012;28;20033;-66
2021/11/04 09:10:20;;;;;;;21.48;10.40;;;9.60;99.90;;;;;;5048890;28;20032;-66
2021/11/04 09:12:46;;;;;;;20.00;11.63;;;9.60;99.90;;;;;;5050112;28;20359;-67
2021/11/04 09:15:12;;;;;;;19.42;12.32;;;9.40;99.90;;;;;;5051677;28;20135;-65
2021/11/04 09:17:38;;;;;;;20.25;12.50;;;9.40;99.90;;;;;;5060431;28;20035;-64
2021/11/04 09:20:05;;;;;;;20.65;12.05;;;9.50;99.90;;;;;;5057493;28;20399;-69
2021/11/04 09:22:33;;;;;;;18.80;11.30;;;9.70;99.90;;;;;;5059340;28;20097;-67
2021/11/04 09:24:58;;;;;;;19.50;11.45;;;9.80;99.90;;;;;;5054299;28;20056;-65
2021/11/04 09:27:24;;;;;;;20.65;10.82;;;9.70;99.90;;;;;;5066359;28;20478;-66
2021/11/04 09:29:50;;;;;;;18.45;11.20;;;9.80;99.90;;;;;;5066259;28;20182;-66
2021/11/04 09:32:16;;;;;;;18.65;10.63;;;9.90;99.90;;;;;;5049954;28;20029;-65
2021/11/04 09:34:42;;;;;;;25.52;10.80;;;9.90;99.90;;;;;;5062014;28;20043;-66
2021/11/04 09:37:11;;;;;;;17.05;9.95;;;9.80;99.90;;;;;;5070500;28;20043;-68
2021/11/04 09:39:37;;;;;;;15.82;10.52;;;9.90;99.90;;;;;;5056145;28;20031;-71
2021/11/04 09:42:04;;;;;;;15.35;9.60;;;10.00;99.90;;;;;;5050960;28;20074;-67
2021/11/04 09:44:29;;;;;;;18.35;10.90;;;9.90;99.90;;;;;;5050778;28;20060;-66
2021/11/04 09:46:55;;;;;;;16.60;10.45;;;10.00;99.90;;;;;;5065744;28;20466;-67
2021/11/04 09:49:21;;;;;;;14.93;10.10;;;9.90;99.90;;;;;;5054032;28;20037;-66
2021/11/04 09:51:47;;;;;;;16.70;8.88;;;9.90;99.90;;;;;;5070621;28;20079;-66
2021/11/04 09:54:13;;;;;;;15.73;8.88;;;10.10;99.90;;;;;;5068589;28;20426;-66
2021/11/04 09:56:39;;;;;;;13.63;7.07;;;10.00;99.90;;;;;;5068676;28;20179;-66
2021/11/04 09:59:05;;;;;;;9.38;6.70;;;10.20;99.90;;;;;;5069935;28;20036;-67
2021/11/04 10:01:33;;;;;;;9.68;6.28;;;10.10;99.90;;;;;;5070373;28;20024;-66
2021/11/04 10:04:01;;;;;;;13.23;6.47;;;10.00;99.90;;;;;;5069734;28;20025;-67
2021/11/04 10:06:33;;;;;;;12.07;7.45;;;10.10;99.90;;;;;;5070412;28;20120;-66
2021/11/04 10:09:10;;;;;;;15.43;7.40;;;10.10;99.90;;;;;;5070029;28;20063;-67
2021/11/04 10:11:42;;;;;;;11.65;7.03;;;10.10;99.90;;;;;;5069288;28;20025;-65
2021/11/04 10:14:11;;;;;;;11.20;6.70;;;10.20;99.90;;;;;;5070554;28;20115;-66
2021/11/04 10:16:37;;;;;;;12.40;7.00;;;10.10;99.90;;;;;;5073302;28;20153;-65
2021/11/04 10:19:05;;;;;;;12.30;7.35;;;10.10;99.90;;;;;;5072870;28;20032;-66
2021/11/04 10:21:33;;;;;;;10.95;7.30;;;10.10;99.90;;;;;;5074803;28;20124;-67
2021/11/04 10:24:00;;;;;;;8.68;5.75;;;10.00;99.90;;;;;;5072570;28;20021;-66
2021/11/04 10:26:29;;;;;;;15.80;6.05;;;10.10;99.90;;;;;;5074020;28;20144;-68
2021/11/04 10:29:14;;;;;;;8.82;5.65;;;10.10;99.90;;;;;;5072805;28;20087;-67
2021/11/04 10:31:45;;;;;;;10.60;6.03;;;10.10;99.90;;;;;;5074387;28;20103;-67
2021/11/04 10:34:14;;;;;;;12.85;7.25;;;10.10;99.90;;;;;;5072376;28;20307;-66
2021/11/04 10:36:44;;;;;;;11.70;5.93;;;9.90;99.90;;;;;;5072554;28;20481;-66
2021/11/04 10:39:10;;;;;;;11.07;6.82;;;9.90;99.90;;;;;;5073236;28;20043;-67
2021/11/04 10:41:39;;;;;;;11.27;6.55;;;10.10;99.90;;;;;;5073463;28;20020;-67
2021/11/04 10:44:10;;;;;;;12.20;6.38;;;10.10;99.90;;;;;;5073247;28;20029;-66
2021/11/04 10:46:57;;;;;;;12.05;7.30;;;10.30;99.90;;;;;;5072721;28;20177;-65
2021/11/04 10:49:29;;;;;;;13.15;7.68;;;10.30;99.90;;;;;;5073859;28;20116;-65
2021/11/04 10:52:07;;;;;;;13.00;8.35;;;10.40;99.90;;;;;;5073543;28;20109;-66
2021/11/04 10:54:47;;;;;;;25.38;7.72;;;10.50;99.90;;;;;;5073292;28;20032;-66
2021/11/04 10:57:13;;;;;;;13.13;7.75;;;10.50;99.90;;;;;;5073488;28;20031;-66
2021/11/04 10:59:46;;;;;;;14.50;8.55;;;10.40;99.90;;;;;;5059845;28;20033;-67
2021/11/04 11:02:11;;;;;;;16.88;8.52;;;10.50;99.90;;;;;;5050385;28;20060;-66
2021/11/04 11:04:37;;;;;;;17.60;9.68;;;10.40;99.90;;;;;;5051925;28;20412;-65
2021/11/04 11:07:03;;;;;;;19.02;10.25;;;10.20;99.90;;;;;;5049126;28;20127;-66
2021/11/04 11:09:35;;;;;;;16.50;9.55;;;10.30;99.90;;;;;;5038548;28;20113;-65
2021/11/04 11:12:04;;;;;;;21.60;11.30;;;10.20;99.90;;;;;;5043874;28;20035;-68
2021/11/04 11:14:34;;;;;;;18.27;10.38;;;10.20;99.90;;;;;;5052858;28;20033;-65
2021/11/04 11:17:01;;;;;;;16.42;9.95;;;10.20;99.90;;;;;;5052298;28;20021;-74
2021/11/04 11:19:32;;;;;;;17.83;10.35;;;10.20;99.90;;;;;;5051431;28;20029;-67
2021/11/04 11:21:59;;;;;;;25.67;12.00;;;10.30;99.90;;;;;;5051345;28;20132;-65
2021/11/04 11:24:30;;;;;;;22.42;12.18;;;10.40;99.90;;;;;;5050147;28;20085;-65
2021/11/04 11:27:00;;;;;;;21.38;11.98;;;10.20;99.90;;;;;;5051021;28;20045;-70
2021/11/04 11:29:38;;;;;;;21.20;12.93;;;10.20;99.90;;;;;;5051799;28;20049;-66
2021/11/04 11:32:15;;;;;;;26.10;12.27;;;10.30;99.90;;;;;;5047038;28;20025;-66
2021/11/04 11:34:41;;;;;;;23.75;14.10;;;10.30;99.90;;;;;;5052002;28;20025;-66
2021/11/04 11:37:17;;;;;;;29.75;13.75;;;10.40;99.90;;;;;;5050171;28;20102;-71
2021/11/04 11:39:50;;;;;;;23.63;13.40;;;10.50;99.90;;;;;;5051786;28;20096;-65
2021/11/04 11:42:22;;;;;;;36.42;15.68;;;10.50;99.90;;;;;;5047504;28;20025;-66
2021/11/04 11:44:58;;;;;;;27.15;13.27;;;10.50;99.90;;;;;;5047498;28;20092;-66
2021/11/04 11:47:33;;;;;;;22.10;12.30;;;10.30;99.90;;;;;;5052124;28;20041;-66
2021/11/04 11:50:27;;;;;;;18.80;11.02;;;10.40;99.90;;;;;;5049911;28;20101;-76
2021/11/04 11:52:57;;;;;;;18.23;11.15;;;10.60;99.90;;;;;;5046777;28;20457;-65
2021/11/04 11:55:40;;;;;;;23.52;12.10;;;10.50;99.90;;;;;;5050812;28;20462;-67
2021/11/04 11:58:15;;;;;;;18.23;9.52;;;10.50;99.90;;;;;;5051348;28;20815;-66
2021/11/04 12:00:50;;;;;;;17.23;9.65;;;10.50;99.90;;;;;;5050115;28;20032;-64
2021/11/04 12:03:38;;;;;;;16.77;9.85;;;10.40;99.90;;;;;;5051223;28;20099;-65
2021/11/04 12:06:03;;;;;;;19.65;10.25;;;10.30;99.90;;;;;;5051152;28;20055;-65
2021/11/04 12:08:29;;;;;;;22.33;11.18;;;10.30;99.90;;;;;;5046612;28;20116;-65
2021/11/04 12:10:59;;;;;;;24.20;12.43;;;10.30;99.90;;;;;;5051396;28;20032;-67
2021/11/04 12:13:36;;;;;;;18.25;9.68;;;10.50;99.90;;;;;;5052226;28;20155;-65
2021/11/04 12:16:16;;;;;;;22.80;9.93;;;10.50;99.90;;;;;;5050761;28;20033;-66
2021/11/04 12:19:00;;;;;;;18.60;9.25;;;10.40;99.90;;;;;;5045286;28;20021;-66
2021/11/04 12:21:37;;;;;;;26.17;10.00;;;10.40;99.90;;;;;;5050554;28;20108;-65
2021/11/04 12:24:08;;;;;;;18.50;9.63;;;10.40;99.90;;;;;;5051072;28;20064;-67
2021/11/04 12:26:37;;;;;;;17.35;9.55;;;10.30;99.90;;;;;;5051087;28;20486;-64
2021/11/04 12:29:05;;;;;;;20.85;10.82;;;10.30;99.90;;;;;;5049380;28;20139;-65
2021/11/04 12:31:36;;;;;;;17.70;9.32;;;10.10;99.90;;;;;;5050122;28;20032;-68
2021/11/04 12:34:02;;;;;;;17.15;8.77;;;10.20;99.90;;;;;;5048213;28;20051;-68
2021/11/04 12:36:40;;;;;;;14.40;9.00;;;10.20;99.90;;;;;;5045752;28;20455;-68
2021/11/04 12:39:20;;;;;;;14.55;8.90;;;10.20;99.90;;;;;;5050083;28;20021;-67
2021/11/04 12:41:48;;;;;;;21.73;9.93;;;10.00;99.90;;;;;;5050858;28;20055;-66
2021/11/04 12:44:14;;;;;;;16.63;8.80;;;10.00;99.90;;;;;;5046652;28;20025;-66